Midland, MI

7:22 AM EST on February 10, 2016 (GMT -0500)
Barstow

Weather History for KIKW - February, 2013

Change the Weather History Date:

Thursday, February 21, 2013

  Actual Average (KMBS) Record (KMBS)
Temperature  
Mean Temperature 20 °F 26 °F  
Max Temperature 23 °F 33 °F 48 °F (2003)
Min Temperature 16 °F 18 °F 1 °F (2008)
Degree Days  
Heating Degree Days 46    
Month to date heating degree days  
Since 1 July heating degree days  
Cooling Degree Days 0    
Month to date cooling degree days  
Year to date cooling degree days  
Moisture  
Dew Point 13 °F    
Average Humidity 76    
Maximum Humidity 94    
Minimum Humidity 65    
Precipitation  
Precipitation 0.00 in 0.07 in 3.99 in (1997)
Month to date precipitation 1.11  
Year to date precipitation 2.82  
Snow  
Snow 0.00 in - - ()
Month to date snowfall  
Since 1 July snowfall  
Snow Depth -    
Sea Level Pressure  
Sea Level Pressure 30.33 in    
Wind  
Wind Speed 7 mph (NE)    
Max Wind Speed 15 mph    
Max Gust Speed 21 mph    
Visibility 10 miles    
Events Snow    
T = Trace of Precipitation, MM = Missing Value Source: NWS Daily Summary

Daily Weather History Graph

Daily Weather History Graph

Search for Another Location

Airport or City:

Trip Planner

Search our weather history database for the weather conditions in past years. The results will help you decide how hot, cold, wet, or windy it might be!

Date:

Astronomy

Feb. 21, 2013 Rise Set
Actual Time 7:26 AM EST 6:15 PM EST
Civil Twilight 6:57 AM EST 6:44 PM EST
Nautical Twilight 6:23 AM EST 7:18 PM EST
Astronomical Twilight 5:50 AM EST 7:51 PM EST
Moon 2:24 PM EST (2/21) 4:35 AM EST (2/21)
Length of Visible Light 11h 47m
Length of Day
10h 49m
Waxing Gibbous, 83% of the Moon is Illuminated
Feb 21
Waxing Gibbous
Feb 25
Full
Mar 4
Last Quarter
Mar 11
New
Mar 19
First Quarter

Hourly Weather History & Observations

Time (EST) Temp. Windchill Dew Point Humidity Pressure Visibility Wind Dir Wind Speed Gust Speed Precip Events Conditions
12:13 AM 21.2 °F 12.6 °F 14.4 °F 75% 30.23 in 10.0 mi NNW 6.9 mph - N/A Snow Light Snow
12:34 AM 21.2 °F 10.9 °F 14.4 °F 75% 30.22 in 10.0 mi NNW 9.2 mph - N/A Snow Light Snow
12:54 AM 21.2 °F 10.9 °F 14.4 °F 75% 30.23 in 10.0 mi NNW 9.2 mph - N/A Snow Light Snow
1:13 AM 21.2 °F 12.6 °F 14.5 °F 75% 30.24 in 10.0 mi NNW 6.9 mph - N/A Snow Light Snow
1:34 AM 21.2 °F 13.6 °F 14.7 °F 76% 30.24 in 7.0 mi NNW 5.8 mph - N/A Snow Light Snow
1:53 AM 21.0 °F 12.4 °F 14.0 °F 74% 30.25 in 10.0 mi NNW 6.9 mph - N/A Snow Light Snow
2:14 AM 20.8 °F 12.1 °F 13.6 °F 74% 30.25 in 10.0 mi North 6.9 mph - N/A   Overcast
2:34 AM 20.3 °F 11.5 °F 13.1 °F 74% 30.26 in 10.0 mi NNW 6.9 mph - N/A Snow Light Snow
2:53 AM 20.3 °F 9.0 °F 12.9 °F 73% 30.27 in 10.0 mi North 10.4 mph - N/A Snow Light Snow
3:14 AM 19.9 °F 11.1 °F 12.4 °F 72% 30.27 in 10.0 mi NNW 6.9 mph - N/A   Overcast
3:34 AM 19.9 °F 11.1 °F 12.7 °F 74% 30.27 in 10.0 mi NNW 6.9 mph - N/A Snow Light Snow
3:53 AM 19.6 °F 10.6 °F 12.7 °F 75% 30.27 in 10.0 mi NNW 6.9 mph - N/A Snow Light Snow
4:14 AM 19.6 °F 13.0 °F 12.4 °F 74% 30.27 in 10.0 mi North 4.6 mph - N/A   Overcast
4:34 AM 19.4 °F 12.8 °F 12.4 °F 74% 30.27 in 10.0 mi North 4.6 mph - N/A   Overcast
4:54 AM 19.4 °F 14.3 °F 12.4 °F 74% 30.27 in 10.0 mi North 3.5 mph - N/A   Overcast
5:14 AM 19.4 °F 9.5 °F 12.4 °F 74% 30.28 in 10.0 mi North 8.1 mph - N/A   Overcast
5:34 AM 19.4 °F 12.8 °F 12.2 °F 74% 30.29 in 10.0 mi NNW 4.6 mph - N/A   Overcast
5:54 AM 19.4 °F 12.8 °F 12.6 °F 75% 30.30 in 10.0 mi NNW 4.6 mph - N/A   Overcast
6:14 AM 19.4 °F 10.4 °F 12.6 °F 75% 30.31 in 10.0 mi NNW 6.9 mph - N/A   Overcast
6:54 AM 19.0 °F 10.0 °F 12.0 °F 74% 30.33 in 10.0 mi NW 6.9 mph - N/A   Overcast
7:14 AM 18.5 °F 8.4 °F 11.7 °F 75% 30.34 in 10.0 mi North 8.1 mph - N/A   Overcast
7:34 AM 18.3 °F 8.2 °F 11.3 °F 74% 30.35 in 10.0 mi NNW 8.1 mph - N/A   Overcast
7:54 AM 18.5 °F 9.3 °F 11.3 °F 73% 30.37 in 10.0 mi NNW 6.9 mph - N/A   Overcast
8:05 AM 18.5 °F 9.3 °F 11.3 °F 73% 30.37 in 10.0 mi NNW 6.9 mph - N/A   Overcast
8:34 AM 17.6 °F 8.2 °F 10.9 °F 75% 30.37 in 10.0 mi North 6.9 mph - N/A   Overcast
8:54 AM 17.6 °F 8.2 °F 10.8 °F 75% 30.36 in 10.0 mi NNE 6.9 mph - N/A   Overcast
9:14 AM 17.6 °F 10.7 °F 10.2 °F 73% 30.35 in 10.0 mi NNE 4.6 mph - N/A   Overcast
9:34 AM 17.2 °F 7.8 °F 9.7 °F 72% 30.35 in 10.0 mi NNE 6.9 mph - N/A   Overcast
9:54 AM 16.9 °F 6.4 °F 9.0 °F 71% 30.35 in 10.0 mi North 8.1 mph - N/A   Overcast
10:14 AM 17.2 °F 8.9 °F 9.5 °F 72% 30.38 in 10.0 mi ENE 5.8 mph - N/A   Overcast
10:34 AM 17.1 °F 6.6 °F 9.9 °F 73% 30.40 in 10.0 mi NE 8.1 mph - N/A   Overcast
10:53 AM 17.4 °F 8.0 °F 8.8 °F 69% 30.39 in 10.0 mi NE 6.9 mph - N/A   Overcast
11:14 AM 17.2 °F 11.9 °F 8.8 °F 69% 30.39 in 10.0 mi NNE 3.5 mph - N/A   Mostly Cloudy
11:34 AM 17.6 °F 10.7 °F 9.3 °F 70% 30.38 in 10.0 mi ENE 4.6 mph - N/A   Scattered Clouds
11:54 AM 18.3 °F 9.1 °F 9.3 °F 68% 30.38 in 10.0 mi East 6.9 mph - N/A   Scattered Clouds
12:14 PM 18.3 °F 11.5 °F 9.0 °F 67% 30.39 in 10.0 mi SE 4.6 mph - N/A   Clear
12:34 PM 18.9 °F 10.8 °F 9.0 °F 65% 30.38 in 10.0 mi East 5.8 mph - N/A   Clear
12:54 PM 19.2 °F 10.2 °F 9.5 °F 66% 30.37 in 10.0 mi East 6.9 mph - N/A   Clear
1:14 PM 19.8 °F 10.8 °F 9.9 °F 65% 30.39 in 10.0 mi ENE 6.9 mph - N/A   Clear
1:34 PM 19.4 °F 11.5 °F 9.5 °F 65% 30.38 in 10.0 mi ENE 5.8 mph - N/A   Clear
1:54 PM 19.6 °F 9.7 °F 10.2 °F 67% 30.38 in 10.0 mi ENE 8.1 mph - N/A   Clear
2:14 PM 19.4 °F 9.5 °F 10.9 °F 70% 30.38 in 10.0 mi ENE 8.1 mph - N/A   Clear
2:34 PM 18.9 °F 8.8 °F 10.6 °F 70% 30.39 in 10.0 mi East 8.1 mph - N/A   Clear
2:54 PM 19.0 °F 10.0 °F 11.3 °F 72% 30.37 in 10.0 mi East 6.9 mph - N/A   Clear
3:14 PM 19.2 °F 9.3 °F 11.3 °F 71% 30.36 in 10.0 mi East 8.1 mph - N/A   Clear
3:34 PM 19.4 °F 9.5 °F 11.7 °F 72% 30.35 in 10.0 mi East 8.1 mph - N/A   Clear
3:54 PM 19.8 °F 9.9 °F 11.8 °F 71% 30.34 in 10.0 mi East 8.1 mph - N/A   Clear
4:14 PM 20.1 °F 8.8 °F 11.8 °F 70% 30.33 in 10.0 mi East 10.4 mph - N/A   Clear
4:34 PM 20.3 °F 9.8 °F 12.2 °F 71% 30.34 in 10.0 mi East 9.2 mph - N/A   Clear
4:54 PM 19.9 °F 10.1 °F 12.4 °F 72% 30.33 in 10.0 mi East 8.1 mph - N/A   Clear
5:14 PM 19.4 °F 8.6 °F 12.2 °F 74% 30.36 in 10.0 mi ESE 9.2 mph - N/A   Clear
5:34 PM 19.9 °F 9.3 °F 13.3 °F 75% 30.37 in 10.0 mi SE 9.2 mph - N/A   Clear
5:53 PM 19.4 °F 10.4 °F 13.1 °F 76% 30.38 in 10.0 mi ESE 6.9 mph - N/A   Clear
6:13 PM 19.4 °F 12.8 °F 12.9 °F 76% 30.38 in 10.0 mi ESE 4.6 mph - N/A   Clear
6:34 PM 19.2 °F 9.3 °F 13.1 °F 77% 30.37 in 10.0 mi ESE 8.1 mph - N/A   Clear
6:54 PM 19.0 °F 12.3 °F 13.3 °F 78% 30.37 in 10.0 mi East 4.6 mph - N/A   Clear
7:14 PM 19.0 °F 9.0 °F 13.1 °F 78% 30.37 in 10.0 mi East 8.1 mph - N/A   Clear
7:34 PM 19.0 °F 9.0 °F 13.8 °F 80% 30.35 in 10.0 mi East 8.1 mph - N/A   Clear
7:54 PM 19.2 °F 12.5 °F 14.5 °F 82% 30.36 in 10.0 mi East 4.6 mph - N/A   Mostly Cloudy
8:14 PM 19.4 °F 10.4 °F 14.9 °F 83% 30.36 in 10.0 mi ESE 6.9 mph - N/A   Overcast
8:34 PM 20.1 °F 10.3 °F 15.8 °F 83% 30.35 in 10.0 mi East 8.1 mph - N/A   Overcast
8:54 PM 21.2 °F 10.1 °F 17.4 °F 85% 30.34 in 10.0 mi East 10.4 mph 19.6 mph N/A   Overcast
9:14 PM 21.2 °F 10.9 °F 17.8 °F 87% 30.33 in 10.0 mi East 9.2 mph 17.3 mph N/A   Overcast
9:35 PM 21.6 °F 9.3 °F 18.3 °F 87% 30.32 in 10.0 mi East 12.7 mph 18.4 mph N/A   Overcast
9:54 PM 21.7 °F 11.5 °F 18.9 °F 89% 30.32 in 10.0 mi East 9.2 mph 18.4 mph N/A   Overcast
10:14 PM 22.1 °F 12.8 °F 19.2 °F 89% 30.32 in 10.0 mi East 8.1 mph - N/A   Overcast
10:34 PM 23.0 °F 11.7 °F 20.5 °F 90% 30.31 in 10.0 mi East 11.5 mph 16.1 mph N/A   Overcast
10:54 PM 23.0 °F 13.9 °F 21.0 °F 92% 30.30 in 10.0 mi East 8.1 mph - N/A   Overcast
11:15 PM 23.2 °F 12.0 °F 21.2 °F 92% 30.30 in 10.0 mi East 11.5 mph 20.7 mph N/A   Overcast
11:34 PM 23.4 °F 11.6 °F 21.9 °F 94% 30.29 in 10.0 mi East 12.7 mph 16.1 mph N/A   Overcast
11:54 PM 23.5 °F 10.8 °F 22.1 °F 94% 30.27 in 10.0 mi East 15.0 mph 19.6 mph N/A   Overcast